createdAt,value
2023-02-08T00:01:12.544Z,2.35
2023-02-08T00:03:40.639Z,2.43
2023-02-08T00:06:09.765Z,2.31
2023-02-08T00:08:38.619Z,2.28
2023-02-08T00:11:07.728Z,2.20
2023-02-08T00:13:35.945Z,2.18
2023-02-08T00:16:04.412Z,2.15
2023-02-08T00:18:33.739Z,2.32
2023-02-08T00:21:01.694Z,2.17
2023-02-08T00:23:29.581Z,2.28
2023-02-08T00:25:57.496Z,2.30
2023-02-08T00:28:25.679Z,2.12
2023-02-08T00:30:53.675Z,2.09
2023-02-08T00:33:21.673Z,2.08
2023-02-08T00:35:51.133Z,2.11
2023-02-08T00:38:20.716Z,2.17
2023-02-08T00:40:48.631Z,2.22
2023-02-08T00:43:16.493Z,2.26
2023-02-08T00:45:44.371Z,2.10
2023-02-08T00:48:12.257Z,2.04
2023-02-08T00:50:40.361Z,2.14
2023-02-08T00:53:09.799Z,2.07
2023-02-08T00:55:37.704Z,2.13
2023-02-08T00:58:05.614Z,2.17
2023-02-08T01:00:33.551Z,2.11
2023-02-08T01:03:01.473Z,1.94
2023-02-08T01:05:29.384Z,2.11
2023-02-08T01:07:58.111Z,2.13
2023-02-08T01:10:27.365Z,2.06
2023-02-08T01:12:55.788Z,2.04
2023-02-08T01:15:23.707Z,2.08
2023-02-08T01:17:55.004Z,2.05
2023-02-08T01:20:23.205Z,2.02
2023-02-08T01:22:51.206Z,2.08
2023-02-08T01:25:19.239Z,2.02
2023-02-08T01:27:48.868Z,1.95
2023-02-08T01:30:17.587Z,1.99
2023-02-08T01:32:45.531Z,2.06
2023-02-08T01:35:13.541Z,2.11
2023-02-08T01:37:41.533Z,2.16
2023-02-08T01:40:11.795Z,2.02
2023-02-08T01:42:39.709Z,1.97
2023-02-08T01:45:31.332Z,2.00
2023-02-08T01:48:09.701Z,1.96
2023-02-08T01:50:46.274Z,1.70
2023-02-08T01:53:14.627Z,1.67
2023-02-08T01:55:47.462Z,1.61
2023-02-08T01:58:16.383Z,1.87
2023-02-08T02:00:46.705Z,1.68
2023-02-08T02:03:15.695Z,1.48
2023-02-08T02:05:46.141Z,1.57
2023-02-08T02:08:14.585Z,1.57
2023-02-08T02:10:43.580Z,1.30
2023-02-08T02:13:14.720Z,1.28
2023-02-08T02:15:46.643Z,1.59
2023-02-08T02:18:21.552Z,1.45
2023-02-08T02:21:12.030Z,1.40
2023-02-08T02:24:16.631Z,1.69
2023-02-08T02:27:08.300Z,1.79
2023-02-08T02:30:22.201Z,1.81
2023-02-08T02:33:09.335Z,1.41
2023-02-08T02:35:47.533Z,1.55
2023-02-08T02:38:27.162Z,1.29
2023-02-08T02:41:07.285Z,1.22
2023-02-08T02:43:46.348Z,1.13
2023-02-08T02:46:25.254Z,1.23
2023-02-08T02:49:03.370Z,1.34
2023-02-08T02:51:40.270Z,1.47
2023-02-08T02:54:12.993Z,1.16
2023-02-08T02:56:44.303Z,1.28
2023-02-08T02:59:14.570Z,1.45
2023-02-08T03:01:44.467Z,1.44
2023-02-08T03:04:15.753Z,1.60
2023-02-08T03:06:58.912Z,1.57
2023-02-08T03:09:46.912Z,1.41
2023-02-08T03:12:29.081Z,1.13
2023-02-08T03:15:03.420Z,1.07
2023-02-08T03:17:51.373Z,1.21
2023-02-08T03:20:25.983Z,1.16
2023-02-08T03:23:02.186Z,1.14
2023-02-08T03:25:46.605Z,1.22
2023-02-08T03:28:24.886Z,1.07
2023-02-08T03:31:00.144Z,0.88
2023-02-08T03:33:34.116Z,0.70
2023-02-08T03:36:08.798Z,0.75
2023-02-08T03:38:40.742Z,0.95
2023-02-08T03:41:13.307Z,0.69
2023-02-08T03:43:46.008Z,0.84
2023-02-08T03:46:20.375Z,1.06
2023-02-08T03:48:53.485Z,0.86
2023-02-08T03:51:24.141Z,0.68
2023-02-08T03:53:54.680Z,0.51
2023-02-08T03:56:31.463Z,0.57
2023-02-08T03:59:03.473Z,0.56
2023-02-08T04:01:37.326Z,0.33
2023-02-08T04:04:05.865Z,0.67
2023-02-08T04:06:35.146Z,0.70
2023-02-08T04:09:03.057Z,0.77
2023-02-08T04:11:31.220Z,0.69
2023-02-08T04:13:59.105Z,0.83
2023-02-08T04:16:27.086Z,0.93
2023-02-08T04:18:55.007Z,0.91
2023-02-08T04:21:22.981Z,0.79
2023-02-08T04:23:52.255Z,0.68
2023-02-08T04:26:20.156Z,0.70
2023-02-08T04:28:48.059Z,0.80
2023-02-08T04:31:16.019Z,0.81
2023-02-08T04:33:44.045Z,0.90
2023-02-08T04:36:12.053Z,0.84
2023-02-08T04:38:40.008Z,0.95
2023-02-08T04:41:09.326Z,0.64
2023-02-08T04:43:37.358Z,0.74
2023-02-08T04:46:05.403Z,0.72
2023-02-08T04:48:33.345Z,0.40
2023-02-08T04:51:01.660Z,0.45
2023-02-08T04:53:29.615Z,0.41
2023-02-08T04:55:57.461Z,0.30
2023-02-08T04:58:26.680Z,0.28
2023-02-08T05:00:54.634Z,0.43
2023-02-08T05:03:22.600Z,0.63
2023-02-08T05:05:57.901Z,0.49
2023-02-08T05:08:25.981Z,0.25
2023-02-08T05:10:53.975Z,0.26
2023-02-08T05:13:21.949Z,0.48
2023-02-08T05:15:51.291Z,0.53
2023-02-08T05:18:19.254Z,0.72
2023-02-08T05:20:47.396Z,0.56
2023-02-08T05:23:15.268Z,0.58
2023-02-08T05:25:43.265Z,0.49
2023-02-08T05:28:11.205Z,0.62
2023-02-08T05:30:39.832Z,0.70
2023-02-08T05:33:09.328Z,0.53
2023-02-08T05:35:37.351Z,0.23
2023-02-08T05:38:05.284Z,0.55
2023-02-08T05:40:33.733Z,0.72
2023-02-08T05:43:01.734Z,0.52
2023-02-08T05:45:29.845Z,0.27
2023-02-08T05:47:57.743Z,0.04
2023-02-08T05:50:27.731Z,0.16
2023-02-08T05:52:55.627Z,0.15
2023-02-08T05:55:23.545Z,-0.12
2023-02-08T05:57:51.671Z,0.16
2023-02-08T06:00:20.096Z,0.51
2023-02-08T06:02:49.040Z,0.49
2023-02-08T06:05:17.111Z,0.26
2023-02-08T06:07:46.415Z,0.40
2023-02-08T06:10:14.304Z,-0.04
2023-02-08T06:12:42.350Z,0.27
2023-02-08T06:15:11.233Z,0.30
2023-02-08T06:17:39.203Z,0.40
2023-02-08T06:20:07.988Z,0.36
2023-02-08T06:22:36.451Z,0.62
2023-02-08T06:25:06.504Z,0.63
2023-02-08T06:27:34.388Z,0.61
2023-02-08T06:30:02.279Z,0.38
2023-02-08T06:32:30.271Z,0.60
2023-02-08T06:34:58.515Z,0.63
2023-02-08T06:37:26.440Z,0.57
2023-02-08T06:39:54.331Z,0.57
2023-02-08T06:42:23.706Z,0.41
2023-02-08T06:44:55.327Z,0.41
2023-02-08T06:47:23.981Z,0.33
2023-02-08T06:49:52.020Z,0.10
2023-02-08T06:52:20.752Z,0.21
2023-02-08T06:54:48.661Z,0.46
2023-02-08T06:57:16.653Z,0.54
2023-02-08T06:59:46.802Z,0.43
2023-02-08T07:02:17.121Z,0.55
2023-02-08T07:04:45.624Z,0.60
2023-02-08T07:07:13.772Z,0.39
2023-02-08T07:09:42.344Z,0.72
2023-02-08T07:12:11.102Z,0.91
2023-02-08T07:14:41.085Z,0.51
2023-02-08T07:17:10.526Z,0.69
2023-02-08T07:19:38.604Z,0.80
2023-02-08T07:22:09.045Z,1.07
2023-02-08T07:24:38.129Z,0.96
2023-02-08T07:27:07.144Z,0.60
2023-02-08T07:29:35.743Z,0.58
2023-02-08T07:32:05.301Z,0.67
2023-02-08T07:34:37.009Z,0.75
2023-02-08T07:37:05.674Z,0.57
2023-02-08T07:39:33.646Z,0.35
2023-02-08T07:42:01.725Z,0.85
2023-02-08T07:44:35.781Z,0.56
2023-02-08T07:47:03.731Z,0.81
2023-02-08T07:49:31.633Z,0.47
2023-02-08T07:52:01.643Z,0.78
2023-02-08T07:54:29.933Z,0.46
2023-02-08T07:56:57.991Z,0.93
2023-02-08T07:59:26.033Z,1.02
2023-02-08T08:01:54.003Z,0.95
2023-02-08T08:04:22.062Z,0.56
2023-02-08T08:06:51.516Z,0.44
2023-02-08T08:09:21.339Z,0.85
2023-02-08T08:11:49.324Z,1.09
2023-02-08T08:14:17.155Z,0.75
2023-02-08T08:16:45.059Z,1.13
2023-02-08T08:19:12.951Z,1.24
2023-02-08T08:21:40.889Z,1.18
2023-02-08T08:24:08.949Z,1.33
2023-02-08T08:26:38.247Z,1.33
2023-02-08T08:29:07.137Z,0.96
2023-02-08T08:31:35.083Z,1.50
2023-02-08T08:34:03.100Z,1.69
2023-02-08T08:36:31.648Z,1.35
2023-02-08T08:38:59.535Z,1.28
2023-02-08T08:41:28.548Z,1.51
2023-02-08T08:43:57.910Z,1.64
2023-02-08T08:46:25.839Z,1.96
2023-02-08T08:48:53.726Z,2.00
2023-02-08T08:51:21.721Z,1.83
2023-02-08T08:53:49.803Z,1.69
2023-02-08T08:56:17.776Z,1.55
2023-02-08T08:58:45.665Z,1.76
2023-02-08T09:01:15.326Z,1.94
2023-02-08T09:03:43.270Z,1.91
2023-02-08T09:06:11.480Z,2.08
2023-02-08T09:08:39.496Z,2.35
2023-02-08T09:11:09.459Z,2.35
2023-02-08T09:13:37.447Z,2.34
2023-02-08T09:16:10.316Z,2.21
2023-02-08T09:18:39.914Z,2.58
2023-02-08T09:21:08.377Z,2.23
2023-02-08T09:23:36.863Z,2.44
2023-02-08T09:26:05.264Z,3.17
2023-02-08T09:28:33.420Z,2.83
2023-02-08T09:31:07.914Z,2.80
2023-02-08T09:33:35.887Z,3.09
2023-02-08T09:36:06.336Z,3.59
2023-02-08T09:38:34.848Z,3.03
2023-02-08T09:41:14.434Z,3.69
2023-02-08T09:43:54.039Z,3.13
2023-02-08T09:46:23.862Z,3.87
2023-02-08T09:48:54.193Z,3.62
2023-02-08T09:51:31.241Z,3.62
2023-02-08T09:54:04.473Z,4.09
2023-02-08T09:56:37.082Z,3.60
2023-02-08T09:59:06.279Z,3.75
2023-02-08T10:01:37.127Z,4.33
2023-02-08T10:04:10.044Z,3.83
2023-02-08T10:06:39.572Z,3.70
2023-02-08T10:09:13.983Z,4.21
2023-02-08T10:11:56.751Z,4.70
2023-02-08T10:14:53.535Z,5.01
2023-02-08T10:18:00.114Z,4.06
2023-02-08T10:20:47.608Z,4.29
2023-02-08T10:23:30.207Z,4.37
2023-02-08T10:26:09.984Z,4.08
2023-02-08T10:28:58.895Z,4.77
2023-02-08T10:31:38.813Z,4.57
2023-02-08T10:34:19.859Z,3.94
2023-02-08T10:36:48.124Z,5.22
2023-02-08T10:39:19.872Z,4.40
2023-02-08T10:41:48.571Z,4.64
2023-02-08T10:44:28.230Z,4.01
2023-02-08T10:47:09.657Z,4.04
2023-02-08T10:49:46.030Z,3.46
2023-02-08T10:52:14.148Z,5.04
2023-02-08T10:54:43.421Z,4.89
2023-02-08T10:57:17.757Z,4.17
2023-02-08T10:59:50.645Z,3.70
2023-02-08T11:02:24.146Z,5.11
2023-02-08T11:05:00.168Z,4.94
2023-02-08T11:07:28.291Z,5.77
2023-02-08T11:10:16.308Z,5.63
2023-02-08T11:12:54.941Z,5.75
2023-02-08T11:15:25.569Z,5.39
2023-02-08T11:17:59.711Z,5.70
2023-02-08T11:20:33.170Z,6.02
2023-02-08T11:23:01.812Z,5.88
2023-02-08T11:25:36.997Z,6.21
2023-02-08T11:28:05.849Z,6.39
2023-02-08T11:30:34.554Z,6.42
2023-02-08T11:33:23.289Z,5.66
2023-02-08T11:35:57.874Z,4.46
2023-02-08T11:38:28.380Z,5.42
2023-02-08T11:41:00.565Z,5.96
2023-02-08T11:43:31.077Z,5.69
2023-02-08T11:46:00.850Z,6.10
2023-02-08T11:48:39.017Z,6.45
2023-02-08T11:51:07.729Z,6.69
2023-02-08T11:53:40.741Z,6.63
2023-02-08T11:56:20.763Z,6.59
2023-02-08T11:59:07.738Z,6.84
2023-02-08T12:01:37.852Z,6.22
2023-02-08T12:04:08.639Z,6.23
2023-02-08T12:06:50.320Z,6.80
2023-02-08T12:09:31.585Z,7.02
2023-02-08T12:12:10.918Z,6.89
2023-02-08T12:14:50.747Z,7.36
2023-02-08T12:17:47.791Z,6.41
2023-02-08T12:20:30.141Z,6.47
2023-02-08T12:23:11.183Z,6.76
2023-02-08T12:25:44.154Z,6.06
2023-02-08T12:28:24.063Z,6.44
2023-02-08T12:31:03.023Z,5.06
2023-02-08T12:33:42.135Z,5.70
2023-02-08T12:36:25.577Z,5.72
2023-02-08T12:39:37.536Z,5.74
2023-02-08T12:42:24.431Z,6.29
2023-02-08T12:45:17.485Z,6.32
2023-02-08T12:48:05.141Z,5.70
2023-02-08T12:50:42.075Z,5.93
2023-02-08T12:53:21.739Z,6.22
2023-02-08T12:55:52.344Z,6.52
2023-02-08T12:58:29.748Z,5.80
2023-02-08T13:01:06.585Z,5.75
2023-02-08T13:03:46.282Z,6.31
2023-02-08T13:06:19.460Z,5.58
2023-02-08T13:08:49.286Z,5.54
2023-02-08T13:11:25.413Z,6.24
2023-02-08T13:13:59.117Z,5.62
2023-02-08T13:16:34.042Z,6.08
2023-02-08T13:19:19.608Z,5.93
2023-02-08T13:21:47.831Z,5.85
2023-02-08T13:24:30.459Z,5.69
2023-02-08T13:26:58.379Z,5.67
2023-02-08T13:29:28.336Z,6.16
2023-02-08T13:32:01.848Z,5.86
2023-02-08T13:34:34.583Z,6.16
2023-02-08T13:37:13.496Z,6.02
2023-02-08T13:39:49.883Z,5.93
2023-02-08T13:42:24.375Z,5.76
2023-02-08T13:44:55.140Z,5.88
2023-02-08T13:47:28.449Z,5.66
2023-02-08T13:50:00.031Z,5.87
2023-02-08T13:52:50.518Z,5.88
2023-02-08T13:55:42.516Z,5.99
2023-02-08T13:58:39.484Z,5.90
2023-02-08T14:01:21.329Z,5.83
2023-02-08T14:04:28.237Z,5.55
2023-02-08T14:07:01.228Z,5.61
2023-02-08T14:09:40.373Z,5.48
2023-02-08T14:12:17.553Z,5.74
2023-02-08T14:15:06.421Z,5.37
2023-02-08T14:17:35.218Z,5.33
2023-02-08T14:20:07.785Z,5.61
2023-02-08T14:22:39.914Z,5.12
2023-02-08T14:25:18.166Z,5.58
2023-02-08T14:27:53.525Z,5.34
2023-02-08T14:30:27.490Z,5.27
2023-02-08T14:33:12.272Z,5.23
2023-02-08T14:35:51.458Z,5.34
2023-02-08T14:38:51.366Z,5.65
2023-02-08T14:41:48.715Z,5.63
2023-02-08T14:44:49.127Z,5.19
2023-02-08T14:48:07.969Z,5.24
2023-02-08T14:50:50.329Z,5.54
2023-02-08T14:53:28.669Z,5.84
2023-02-08T14:56:03.665Z,5.22
2023-02-08T14:58:35.895Z,4.88
2023-02-08T15:01:08.897Z,5.08
2023-02-08T15:03:37.356Z,4.76
2023-02-08T15:06:35.791Z,4.77
2023-02-08T15:09:05.633Z,5.03
2023-02-08T15:11:36.143Z,5.27
2023-02-08T15:14:06.026Z,5.25
2023-02-08T15:16:37.620Z,5.12
2023-02-08T15:19:08.576Z,5.42
2023-02-08T15:21:38.796Z,4.86
2023-02-08T15:24:15.522Z,4.57
2023-02-08T15:26:48.150Z,4.52
2023-02-08T15:29:24.606Z,5.00
2023-02-08T15:31:56.020Z,4.76
2023-02-08T15:34:27.580Z,4.66
2023-02-08T15:36:57.888Z,4.53
2023-02-08T15:39:38.564Z,4.97
2023-02-08T15:42:07.401Z,4.62
2023-02-08T15:44:35.892Z,4.62
2023-02-08T15:47:10.829Z,4.44
2023-02-08T15:49:41.863Z,4.98
2023-02-08T15:52:17.315Z,4.43
2023-02-08T15:54:46.327Z,4.23
2023-02-08T15:57:23.532Z,4.63
2023-02-08T15:59:51.727Z,4.32
2023-02-08T16:02:25.075Z,4.31
2023-02-08T16:04:53.130Z,4.46
2023-02-08T16:07:28.272Z,4.46
2023-02-08T16:09:58.239Z,4.49
2023-02-08T16:12:29.328Z,4.11
2023-02-08T16:14:57.866Z,4.07
2023-02-08T16:17:34.390Z,4.25
2023-02-08T16:20:02.728Z,3.94
2023-02-08T16:22:33.874Z,4.27
2023-02-08T16:25:23.660Z,4.43
2023-02-08T16:27:52.061Z,4.33
2023-02-08T16:30:21.913Z,4.06
2023-02-08T16:32:50.531Z,4.20
2023-02-08T16:35:24.666Z,4.27
2023-02-08T16:38:00.616Z,4.24
2023-02-08T16:40:51.684Z,4.19
2023-02-08T16:43:24.842Z,3.96
2023-02-08T16:46:11.146Z,4.19
2023-02-08T16:48:41.032Z,4.39
2023-02-08T16:51:15.711Z,4.21
2023-02-08T16:53:47.002Z,4.13
2023-02-08T16:56:15.082Z,4.04
2023-02-08T16:58:43.261Z,3.68
2023-02-08T17:01:13.340Z,3.84
2023-02-08T17:03:41.388Z,4.11
2023-02-08T17:06:21.228Z,3.83
2023-02-08T17:08:50.463Z,4.02
2023-02-08T17:11:18.358Z,3.30
2023-02-08T17:13:46.243Z,3.70
2023-02-08T17:16:19.107Z,3.64
2023-02-08T17:18:47.919Z,3.38
2023-02-08T17:21:16.708Z,3.79
2023-02-08T17:23:44.679Z,3.72
2023-02-08T17:26:17.149Z,3.54
2023-02-08T17:28:45.212Z,3.66
2023-02-08T17:31:14.656Z,3.80
2023-02-08T17:33:43.188Z,3.62
2023-02-08T17:36:13.214Z,3.72
2023-02-08T17:38:43.000Z,3.83
2023-02-08T17:41:16.281Z,3.88
2023-02-08T17:43:44.378Z,3.96
2023-02-08T17:46:14.003Z,3.58
2023-02-08T17:48:41.990Z,3.46
2023-02-08T17:51:11.234Z,3.53
2023-02-08T17:53:40.898Z,3.53
2023-02-08T17:56:11.266Z,3.69
2023-02-08T17:58:40.681Z,3.50
2023-02-08T18:01:10.200Z,3.55
2023-02-08T18:03:38.373Z,3.66
2023-02-08T18:06:07.665Z,3.26
2023-02-08T18:08:37.388Z,3.30
2023-02-08T18:11:06.651Z,3.36
2023-02-08T18:13:36.017Z,3.45
2023-02-08T18:16:09.886Z,3.27
2023-02-08T18:18:38.389Z,3.46
2023-02-08T18:21:11.375Z,3.61
2023-02-08T18:23:39.635Z,3.52
2023-02-08T18:26:08.750Z,3.23
2023-02-08T18:28:37.382Z,3.25
2023-02-08T18:31:06.669Z,3.34
2023-02-08T18:33:36.728Z,3.27
2023-02-08T18:36:06.959Z,3.59
2023-02-08T18:38:35.023Z,3.42
2023-02-08T18:41:02.883Z,3.48
2023-02-08T18:43:30.843Z,3.44
2023-02-08T18:46:03.029Z,3.24
2023-02-08T18:48:31.510Z,2.82
2023-02-08T18:51:02.880Z,3.34
2023-02-08T18:53:31.954Z,3.30
2023-02-08T18:56:01.768Z,2.99
2023-02-08T18:58:30.293Z,3.19
2023-02-08T19:01:06.959Z,3.11
2023-02-08T19:03:35.768Z,3.12
2023-02-08T19:06:06.953Z,3.10
2023-02-08T19:08:37.420Z,3.14
2023-02-08T19:11:06.392Z,2.94
2023-02-08T19:13:35.526Z,3.24
2023-02-08T19:16:03.453Z,2.66
2023-02-08T19:18:31.360Z,2.97
2023-02-08T19:21:06.039Z,2.77
2023-02-08T19:23:34.164Z,2.95
2023-02-08T19:26:03.550Z,2.86
2023-02-08T19:28:33.610Z,2.87
2023-02-08T19:31:06.418Z,2.69
2023-02-08T19:33:34.393Z,2.82
2023-02-08T19:36:09.463Z,2.49
2023-02-08T19:38:38.175Z,2.58
2023-02-08T19:41:07.146Z,2.51
2023-02-08T19:43:35.771Z,2.38
2023-02-08T19:46:09.192Z,2.51
2023-02-08T19:48:37.158Z,2.52
2023-02-08T19:51:05.607Z,2.74
2023-02-08T19:53:35.035Z,2.59
2023-02-08T19:56:05.261Z,2.73
2023-02-08T19:58:34.012Z,2.48
2023-02-08T20:01:06.223Z,2.35
2023-02-08T20:03:34.210Z,2.49
2023-02-08T20:06:02.230Z,2.43
2023-02-08T20:08:30.607Z,2.15
2023-02-08T20:10:59.845Z,2.64
2023-02-08T20:13:27.787Z,2.18
2023-02-08T20:16:00.739Z,2.41
2023-02-08T20:18:28.687Z,2.46
2023-02-08T20:21:01.449Z,2.18
2023-02-08T20:23:30.113Z,2.31
2023-02-08T20:26:21.138Z,2.59
2023-02-08T20:28:51.846Z,2.56
2023-02-08T20:31:23.264Z,2.37
2023-02-08T20:33:52.073Z,2.39
2023-02-08T20:36:21.840Z,2.02
2023-02-08T20:38:51.571Z,1.85
2023-02-08T20:41:22.734Z,1.84
2023-02-08T20:43:50.928Z,1.73
2023-02-08T20:46:22.234Z,2.01
2023-02-08T20:48:51.048Z,2.11
2023-02-08T20:51:21.591Z,1.72
2023-02-08T20:53:50.845Z,1.90
2023-02-08T20:56:22.319Z,1.79
2023-02-08T20:58:50.768Z,1.85
2023-02-08T21:01:20.956Z,2.04
2023-02-08T21:03:49.530Z,1.83
2023-02-08T21:06:19.390Z,2.12
2023-02-08T21:08:51.607Z,1.94
2023-02-08T21:11:22.218Z,2.09
2023-02-08T21:13:50.943Z,1.79
2023-02-08T21:16:19.808Z,1.87
2023-02-08T21:18:48.123Z,1.79
2023-02-08T21:21:16.515Z,2.00
2023-02-08T21:23:45.040Z,1.51
2023-02-08T21:26:14.924Z,1.88
2023-02-08T21:28:44.453Z,2.02
2023-02-08T21:31:15.750Z,1.94
2023-02-08T21:33:44.899Z,1.42
2023-02-08T21:36:14.602Z,1.78
2023-02-08T21:38:43.373Z,1.53
2023-02-08T21:41:14.219Z,1.67
2023-02-08T21:43:42.593Z,1.88
2023-02-08T21:46:11.940Z,1.80
2023-02-08T21:48:57.507Z,1.71
2023-02-08T21:51:44.283Z,1.57
2023-02-08T21:54:30.953Z,1.33
2023-02-08T21:57:00.058Z,1.55
2023-02-08T21:59:28.853Z,1.72
2023-02-08T22:01:58.131Z,1.68
2023-02-08T22:04:25.995Z,1.51
2023-02-08T22:06:52.931Z,1.52
2023-02-08T22:09:21.924Z,1.47
2023-02-08T22:11:50.274Z,1.60
2023-02-08T22:14:18.230Z,1.79
2023-02-08T22:16:46.125Z,1.76
2023-02-08T22:19:15.633Z,1.62
2023-02-08T22:21:43.561Z,1.32
2023-02-08T22:24:11.564Z,1.49
2023-02-08T22:26:39.473Z,1.29
2023-02-08T22:29:07.400Z,1.57
2023-02-08T22:31:35.406Z,1.75
2023-02-08T22:34:03.622Z,1.70
2023-02-08T22:36:32.935Z,1.83
2023-02-08T22:39:00.851Z,1.84
2023-02-08T22:41:28.767Z,1.58
2023-02-08T22:43:56.796Z,1.62
2023-02-08T22:46:24.785Z,1.43
2023-02-08T22:48:52.856Z,1.49
2023-02-08T22:51:21.625Z,1.39
2023-02-08T22:53:51.003Z,1.53
2023-02-08T22:56:19.982Z,1.12
2023-02-08T22:58:47.966Z,1.16
2023-02-08T23:01:18.063Z,1.31
2023-02-08T23:03:46.162Z,1.48
2023-02-08T23:06:17.688Z,1.61
2023-02-08T23:08:45.795Z,1.41
2023-02-08T23:11:16.234Z,1.38
2023-02-08T23:13:48.000Z,1.22
2023-02-08T23:16:18.397Z,1.40
2023-02-08T23:18:46.811Z,1.16
2023-02-08T23:21:18.249Z,1.15
2023-02-08T23:23:47.863Z,1.26
2023-02-08T23:26:19.168Z,1.31
2023-02-08T23:28:47.559Z,0.97
2023-02-08T23:31:16.351Z,1.13
2023-02-08T23:33:44.402Z,0.95
2023-02-08T23:36:14.643Z,1.20
2023-02-08T23:38:43.697Z,0.91
2023-02-08T23:41:14.300Z,1.13
2023-02-08T23:43:44.497Z,1.08
2023-02-08T23:46:15.696Z,1.18
2023-02-08T23:48:43.861Z,0.78
2023-02-08T23:51:11.863Z,0.85
2023-02-08T23:53:39.773Z,0.77
2023-02-08T23:56:14.162Z,1.09
2023-02-08T23:58:43.873Z,1.15
